sensor_id;sensor_type;location;lat;lon;timestamp;P1;durP1;ratioP1;P2;durP2;ratioP2
73428;SDS011;61643;49.564;17.412;2023-04-03T00:01:37;6.78;;;3.50;;
73428;SDS011;61643;49.564;17.412;2023-04-03T00:04:04;6.82;;;3.97;;
73428;SDS011;61643;49.564;17.412;2023-04-03T00:06:31;7.97;;;4.53;;
73428;SDS011;61643;49.564;17.412;2023-04-03T00:08:57;10.05;;;4.55;;
73428;SDS011;61643;49.564;17.412;2023-04-03T00:11:23;8.82;;;4.32;;
73428;SDS011;61643;49.564;17.412;2023-04-03T00:13:49;8.25;;;4.32;;
73428;SDS011;61643;49.564;17.412;2023-04-03T00:16:15;7.30;;;4.05;;
73428;SDS011;61643;49.564;17.412;2023-04-03T00:18:41;7.47;;;4.45;;
73428;SDS011;61643;49.564;17.412;2023-04-03T00:21:08;6.85;;;4.15;;
73428;SDS011;61643;49.564;17.412;2023-04-03T00:23:37;8.05;;;3.70;;
73428;SDS011;61643;49.564;17.412;2023-04-03T00:26:03;6.05;;;3.78;;
73428;SDS011;61643;49.564;17.412;2023-04-03T00:28:29;7.28;;;3.80;;
73428;SDS011;61643;49.564;17.412;2023-04-03T00:30:55;7.13;;;4.43;;
73428;SDS011;61643;49.564;17.412;2023-04-03T00:33:21;6.38;;;4.10;;
73428;SDS011;61643;49.564;17.412;2023-04-03T00:35:47;6.53;;;3.90;;
73428;SDS011;61643;49.564;17.412;2023-04-03T00:38:14;6.90;;;4.43;;
73428;SDS011;61643;49.564;17.412;2023-04-03T00:40:44;6.43;;;4.15;;
73428;SDS011;61643;49.564;17.412;2023-04-03T00:43:13;6.22;;;3.78;;
73428;SDS011;61643;49.564;17.412;2023-04-03T00:45:44;8.73;;;4.45;;
73428;SDS011;61643;49.564;17.412;2023-04-03T00:48:13;6.97;;;4.15;;
73428;SDS011;61643;49.564;17.412;2023-04-03T00:51:02;6.93;;;4.07;;
73428;SDS011;61643;49.564;17.412;2023-04-03T00:53:31;8.80;;;3.50;;
73428;SDS011;61643;49.564;17.412;2023-04-03T00:56:04;7.50;;;3.78;;
73428;SDS011;61643;49.564;17.412;2023-04-03T00:58:33;9.10;;;4.75;;
73428;SDS011;61643;49.564;17.412;2023-04-03T01:01:05;6.85;;;4.22;;
73428;SDS011;61643;49.564;17.412;2023-04-03T01:03:35;6.80;;;4.05;;
73428;SDS011;61643;49.564;17.412;2023-04-03T01:06:02;9.98;;;4.53;;
73428;SDS011;61643;49.564;17.412;2023-04-03T01:08:28;7.93;;;3.70;;
73428;SDS011;61643;49.564;17.412;2023-04-03T01:10:54;7.45;;;4.25;;
73428;SDS011;61643;49.564;17.412;2023-04-03T01:13:25;5.90;;;3.42;;
73428;SDS011;61643;49.564;17.412;2023-04-03T01:15:53;6.68;;;3.65;;
73428;SDS011;61643;49.564;17.412;2023-04-03T01:18:20;6.93;;;3.95;;
73428;SDS011;61643;49.564;17.412;2023-04-03T01:23:25;7.65;;;3.88;;
73428;SDS011;61643;49.564;17.412;2023-04-03T01:25:58;7.68;;;4.35;;
73428;SDS011;61643;49.564;17.412;2023-04-03T01:28:31;7.63;;;3.33;;
73428;SDS011;61643;49.564;17.412;2023-04-03T01:33:45;8.25;;;3.92;;
73428;SDS011;61643;49.564;17.412;2023-04-03T01:36:25;8.25;;;3.97;;
73428;SDS011;61643;49.564;17.412;2023-04-03T01:38:54;7.10;;;3.45;;
73428;SDS011;61643;49.564;17.412;2023-04-03T01:41:20;5.30;;;3.53;;
73428;SDS011;61643;49.564;17.412;2023-04-03T01:43:47;6.13;;;3.40;;
73428;SDS011;61643;49.564;17.412;2023-04-03T01:46:15;5.75;;;3.50;;
73428;SDS011;61643;49.564;17.412;2023-04-03T01:48:42;6.38;;;3.35;;
73428;SDS011;61643;49.564;17.412;2023-04-03T01:51:08;6.10;;;3.15;;
73428;SDS011;61643;49.564;17.412;2023-04-03T01:53:34;4.88;;;2.60;;
73428;SDS011;61643;49.564;17.412;2023-04-03T01:56:00;6.07;;;3.08;;
73428;SDS011;61643;49.564;17.412;2023-04-03T01:58:26;7.10;;;3.35;;
73428;SDS011;61643;49.564;17.412;2023-04-03T02:00:52;7.40;;;3.58;;
73428;SDS011;61643;49.564;17.412;2023-04-03T02:03:18;5.88;;;2.92;;
73428;SDS011;61643;49.564;17.412;2023-04-03T02:05:44;4.28;;;3.17;;
73428;SDS011;61643;49.564;17.412;2023-04-03T02:08:10;5.05;;;3.17;;
73428;SDS011;61643;49.564;17.412;2023-04-03T02:10:37;6.75;;;2.78;;
73428;SDS011;61643;49.564;17.412;2023-04-03T02:13:03;5.22;;;3.10;;
73428;SDS011;61643;49.564;17.412;2023-04-03T02:15:29;7.53;;;2.88;;
73428;SDS011;61643;49.564;17.412;2023-04-03T02:17:55;5.93;;;3.47;;
73428;SDS011;61643;49.564;17.412;2023-04-03T02:20:20;5.45;;;3.05;;
73428;SDS011;61643;49.564;17.412;2023-04-03T02:22:46;5.40;;;3.42;;
73428;SDS011;61643;49.564;17.412;2023-04-03T02:25:13;5.82;;;2.75;;
73428;SDS011;61643;49.564;17.412;2023-04-03T02:27:40;5.68;;;3.22;;
73428;SDS011;61643;49.564;17.412;2023-04-03T02:30:06;4.50;;;2.90;;
73428;SDS011;61643;49.564;17.412;2023-04-03T02:32:32;6.57;;;3.30;;
73428;SDS011;61643;49.564;17.412;2023-04-03T02:34:58;5.90;;;2.80;;
73428;SDS011;61643;49.564;17.412;2023-04-03T02:37:24;5.88;;;3.80;;
73428;SDS011;61643;49.564;17.412;2023-04-03T02:39:51;5.72;;;3.33;;
73428;SDS011;61643;49.564;17.412;2023-04-03T02:42:16;7.68;;;3.90;;
73428;SDS011;61643;49.564;17.412;2023-04-03T02:44:42;5.18;;;2.88;;
73428;SDS011;61643;49.564;17.412;2023-04-03T02:47:08;7.45;;;2.97;;
73428;SDS011;61643;49.564;17.412;2023-04-03T02:49:35;8.13;;;3.72;;
73428;SDS011;61643;49.564;17.412;2023-04-03T02:52:00;3.95;;;2.45;;
73428;SDS011;61643;49.564;17.412;2023-04-03T02:54:26;5.97;;;3.53;;
73428;SDS011;61643;49.564;17.412;2023-04-03T02:56:56;7.25;;;3.13;;
73428;SDS011;61643;49.564;17.412;2023-04-03T02:59:22;7.57;;;3.55;;
73428;SDS011;61643;49.564;17.412;2023-04-03T03:01:48;5.60;;;2.83;;
73428;SDS011;61643;49.564;17.412;2023-04-03T03:04:14;7.35;;;3.30;;
73428;SDS011;61643;49.564;17.412;2023-04-03T03:06:40;5.10;;;3.20;;
73428;SDS011;61643;49.564;17.412;2023-04-03T03:09:07;7.60;;;3.15;;
73428;SDS011;61643;49.564;17.412;2023-04-03T03:11:33;6.03;;;3.38;;
73428;SDS011;61643;49.564;17.412;2023-04-03T03:13:59;5.50;;;2.95;;
73428;SDS011;61643;49.564;17.412;2023-04-03T03:16:25;7.32;;;2.85;;
73428;SDS011;61643;49.564;17.412;2023-04-03T03:18:51;6.93;;;3.33;;
73428;SDS011;61643;49.564;17.412;2023-04-03T03:21:17;5.35;;;3.25;;
73428;SDS011;61643;49.564;17.412;2023-04-03T03:23:43;5.40;;;2.85;;
73428;SDS011;61643;49.564;17.412;2023-04-03T03:26:09;6.53;;;3.88;;
73428;SDS011;61643;49.564;17.412;2023-04-03T03:28:36;5.13;;;2.97;;
73428;SDS011;61643;49.564;17.412;2023-04-03T03:31:03;4.72;;;3.00;;
73428;SDS011;61643;49.564;17.412;2023-04-03T03:33:31;5.40;;;3.33;;
73428;SDS011;61643;49.564;17.412;2023-04-03T03:35:57;3.38;;;2.33;;
73428;SDS011;61643;49.564;17.412;2023-04-03T03:38:23;7.68;;;3.38;;
73428;SDS011;61643;49.564;17.412;2023-04-03T03:40:49;6.53;;;3.28;;
73428;SDS011;61643;49.564;17.412;2023-04-03T03:43:16;5.82;;;3.58;;
73428;SDS011;61643;49.564;17.412;2023-04-03T03:45:43;5.75;;;3.42;;
73428;SDS011;61643;49.564;17.412;2023-04-03T03:48:09;7.65;;;3.08;;
73428;SDS011;61643;49.564;17.412;2023-04-03T03:50:35;6.80;;;3.63;;
73428;SDS011;61643;49.564;17.412;2023-04-03T03:53:01;6.50;;;3.70;;
73428;SDS011;61643;49.564;17.412;2023-04-03T03:55:27;5.72;;;3.10;;
73428;SDS011;61643;49.564;17.412;2023-04-03T03:57:53;6.82;;;3.28;;
73428;SDS011;61643;49.564;17.412;2023-04-03T04:00:19;8.38;;;3.22;;
73428;SDS011;61643;49.564;17.412;2023-04-03T04:02:45;6.88;;;3.05;;
73428;SDS011;61643;49.564;17.412;2023-04-03T04:05:12;4.43;;;2.72;;
73428;SDS011;61643;49.564;17.412;2023-04-03T04:07:38;4.60;;;3.05;;
73428;SDS011;61643;49.564;17.412;2023-04-03T04:10:04;5.90;;;3.03;;
73428;SDS011;61643;49.564;17.412;2023-04-03T04:12:30;6.63;;;3.78;;
73428;SDS011;61643;49.564;17.412;2023-04-03T04:14:56;9.63;;;3.63;;
73428;SDS011;61643;49.564;17.412;2023-04-03T04:17:22;5.60;;;2.85;;
73428;SDS011;61643;49.564;17.412;2023-04-03T04:19:48;5.70;;;2.88;;
73428;SDS011;61643;49.564;17.412;2023-04-03T04:22:14;4.78;;;2.75;;
73428;SDS011;61643;49.564;17.412;2023-04-03T04:24:40;5.57;;;3.10;;
73428;SDS011;61643;49.564;17.412;2023-04-03T04:27:06;7.15;;;4.15;;
73428;SDS011;61643;49.564;17.412;2023-04-03T04:29:32;8.38;;;3.60;;
73428;SDS011;61643;49.564;17.412;2023-04-03T04:32:01;8.13;;;3.78;;
73428;SDS011;61643;49.564;17.412;2023-04-03T04:34:28;5.43;;;2.95;;
73428;SDS011;61643;49.564;17.412;2023-04-03T04:36:55;8.18;;;4.35;;
73428;SDS011;61643;49.564;17.412;2023-04-03T04:39:21;9.18;;;3.28;;
73428;SDS011;61643;49.564;17.412;2023-04-03T04:41:47;7.18;;;3.40;;
73428;SDS011;61643;49.564;17.412;2023-04-03T04:44:13;7.00;;;3.28;;
73428;SDS011;61643;49.564;17.412;2023-04-03T04:46:39;4.78;;;2.33;;
73428;SDS011;61643;49.564;17.412;2023-04-03T04:49:05;6.00;;;2.90;;
73428;SDS011;61643;49.564;17.412;2023-04-03T04:51:31;3.88;;;2.53;;
73428;SDS011;61643;49.564;17.412;2023-04-03T04:53:57;5.85;;;2.50;;
73428;SDS011;61643;49.564;17.412;2023-04-03T04:56:23;7.65;;;2.97;;
73428;SDS011;61643;49.564;17.412;2023-04-03T04:58:49;6.90;;;3.20;;
73428;SDS011;61643;49.564;17.412;2023-04-03T05:01:15;6.93;;;2.75;;
73428;SDS011;61643;49.564;17.412;2023-04-03T05:03:41;4.00;;;2.25;;
73428;SDS011;61643;49.564;17.412;2023-04-03T05:06:07;5.55;;;2.92;;
73428;SDS011;61643;49.564;17.412;2023-04-03T05:08:33;5.68;;;3.33;;
73428;SDS011;61643;49.564;17.412;2023-04-03T05:10:59;10.05;;;2.70;;
73428;SDS011;61643;49.564;17.412;2023-04-03T05:13:25;5.60;;;2.88;;
73428;SDS011;61643;49.564;17.412;2023-04-03T05:15:51;6.05;;;2.97;;
73428;SDS011;61643;49.564;17.412;2023-04-03T05:18:17;5.00;;;2.65;;
73428;SDS011;61643;49.564;17.412;2023-04-03T05:20:43;7.15;;;3.22;;
73428;SDS011;61643;49.564;17.412;2023-04-03T05:23:09;5.50;;;3.13;;
73428;SDS011;61643;49.564;17.412;2023-04-03T05:25:39;8.10;;;3.10;;
73428;SDS011;61643;49.564;17.412;2023-04-03T05:28:05;3.97;;;2.40;;
73428;SDS011;61643;49.564;17.412;2023-04-03T05:30:32;6.60;;;3.28;;
73428;SDS011;61643;49.564;17.412;2023-04-03T05:32:58;8.48;;;3.45;;
73428;SDS011;61643;49.564;17.412;2023-04-03T05:35:24;5.20;;;3.40;;
73428;SDS011;61643;49.564;17.412;2023-04-03T05:37:50;7.50;;;3.08;;
73428;SDS011;61643;49.564;17.412;2023-04-03T05:40:16;7.82;;;3.40;;
73428;SDS011;61643;49.564;17.412;2023-04-03T05:42:44;8.20;;;3.63;;
73428;SDS011;61643;49.564;17.412;2023-04-03T05:45:10;5.93;;;3.22;;
73428;SDS011;61643;49.564;17.412;2023-04-03T05:47:36;6.70;;;2.95;;
73428;SDS011;61643;49.564;17.412;2023-04-03T05:50:02;7.78;;;3.50;;
73428;SDS011;61643;49.564;17.412;2023-04-03T05:52:30;5.50;;;2.78;;
73428;SDS011;61643;49.564;17.412;2023-04-03T05:54:58;4.68;;;2.65;;
73428;SDS011;61643;49.564;17.412;2023-04-03T05:57:24;6.25;;;2.97;;
73428;SDS011;61643;49.564;17.412;2023-04-03T05:59:50;3.10;;;2.15;;
73428;SDS011;61643;49.564;17.412;2023-04-03T06:02:21;8.60;;;3.03;;
73428;SDS011;61643;49.564;17.412;2023-04-03T06:04:48;5.32;;;2.70;;
73428;SDS011;61643;49.564;17.412;2023-04-03T06:07:16;6.05;;;2.30;;
73428;SDS011;61643;49.564;17.412;2023-04-03T06:09:43;5.90;;;2.83;;
73428;SDS011;61643;49.564;17.412;2023-04-03T06:12:09;4.70;;;2.70;;
73428;SDS011;61643;49.564;17.412;2023-04-03T06:14:36;5.85;;;3.17;;
73428;SDS011;61643;49.564;17.412;2023-04-03T06:17:02;9.55;;;3.20;;
73428;SDS011;61643;49.564;17.412;2023-04-03T06:19:29;6.72;;;3.10;;
73428;SDS011;61643;49.564;17.412;2023-04-03T06:21:56;7.60;;;3.15;;
73428;SDS011;61643;49.564;17.412;2023-04-03T06:24:21;9.82;;;3.58;;
73428;SDS011;61643;49.564;17.412;2023-04-03T06:26:49;7.88;;;2.85;;
73428;SDS011;61643;49.564;17.412;2023-04-03T06:29:17;10.82;;;2.60;;
73428;SDS011;61643;49.564;17.412;2023-04-03T06:31:43;5.18;;;2.88;;
73428;SDS011;61643;49.564;17.412;2023-04-03T06:34:09;5.13;;;2.42;;
73428;SDS011;61643;49.564;17.412;2023-04-03T06:36:36;7.60;;;2.97;;
73428;SDS011;61643;49.564;17.412;2023-04-03T06:39:02;7.15;;;3.28;;
73428;SDS011;61643;49.564;17.412;2023-04-03T06:41:28;3.60;;;2.38;;
73428;SDS011;61643;49.564;17.412;2023-04-03T06:43:54;7.05;;;3.20;;
73428;SDS011;61643;49.564;17.412;2023-04-03T06:46:23;5.18;;;2.90;;
73428;SDS011;61643;49.564;17.412;2023-04-03T06:48:50;5.10;;;2.80;;
73428;SDS011;61643;49.564;17.412;2023-04-03T06:51:20;4.90;;;2.50;;
73428;SDS011;61643;49.564;17.412;2023-04-03T06:53:48;8.45;;;2.70;;
73428;SDS011;61643;49.564;17.412;2023-04-03T06:56:16;7.10;;;2.85;;
73428;SDS011;61643;49.564;17.412;2023-04-03T06:58:43;4.57;;;2.40;;
73428;SDS011;61643;49.564;17.412;2023-04-03T07:01:11;5.03;;;2.25;;
73428;SDS011;61643;49.564;17.412;2023-04-03T07:03:38;5.45;;;2.42;;
73428;SDS011;61643;49.564;17.412;2023-04-03T07:06:04;3.67;;;2.33;;
73428;SDS011;61643;49.564;17.412;2023-04-03T07:08:32;2.53;;;1.73;;
73428;SDS011;61643;49.564;17.412;2023-04-03T07:10:59;5.22;;;2.78;;
73428;SDS011;61643;49.564;17.412;2023-04-03T07:13:25;4.70;;;2.40;;
73428;SDS011;61643;49.564;17.412;2023-04-03T07:15:52;5.68;;;2.60;;
73428;SDS011;61643;49.564;17.412;2023-04-03T07:18:18;4.30;;;2.40;;
73428;SDS011;61643;49.564;17.412;2023-04-03T07:20:44;6.50;;;2.65;;
73428;SDS011;61643;49.564;17.412;2023-04-03T07:23:11;3.80;;;2.72;;
73428;SDS011;61643;49.564;17.412;2023-04-03T07:25:40;4.05;;;2.63;;
73428;SDS011;61643;49.564;17.412;2023-04-03T07:28:08;4.25;;;2.40;;
73428;SDS011;61643;49.564;17.412;2023-04-03T07:30:34;3.03;;;2.00;;
73428;SDS011;61643;49.564;17.412;2023-04-03T07:33:00;4.50;;;2.15;;
73428;SDS011;61643;49.564;17.412;2023-04-03T07:35:26;3.58;;;2.20;;
73428;SDS011;61643;49.564;17.412;2023-04-03T07:37:52;5.35;;;2.22;;
73428;SDS011;61643;49.564;17.412;2023-04-03T07:40:18;2.75;;;2.38;;
73428;SDS011;61643;49.564;17.412;2023-04-03T07:42:44;3.83;;;2.30;;
73428;SDS011;61643;49.564;17.412;2023-04-03T07:45:10;5.55;;;2.15;;
73428;SDS011;61643;49.564;17.412;2023-04-03T07:47:37;5.35;;;2.22;;
73428;SDS011;61643;49.564;17.412;2023-04-03T07:50:02;3.03;;;2.10;;
73428;SDS011;61643;49.564;17.412;2023-04-03T07:52:29;3.67;;;2.05;;
73428;SDS011;61643;49.564;17.412;2023-04-03T07:54:55;5.82;;;1.80;;
73428;SDS011;61643;49.564;17.412;2023-04-03T07:57:20;3.40;;;1.67;;
73428;SDS011;61643;49.564;17.412;2023-04-03T07:59:46;3.30;;;1.88;;
73428;SDS011;61643;49.564;17.412;2023-04-03T08:02:12;3.83;;;1.77;;
73428;SDS011;61643;49.564;17.412;2023-04-03T08:04:38;4.03;;;2.45;;
73428;SDS011;61643;49.564;17.412;2023-04-03T08:07:05;3.00;;;1.73;;
73428;SDS011;61643;49.564;17.412;2023-04-03T08:09:31;3.97;;;1.98;;
73428;SDS011;61643;49.564;17.412;2023-04-03T08:11:57;5.75;;;1.92;;
73428;SDS011;61643;49.564;17.412;2023-04-03T08:14:24;3.30;;;1.65;;
73428;SDS011;61643;49.564;17.412;2023-04-03T08:16:49;3.03;;;1.88;;
73428;SDS011;61643;49.564;17.412;2023-04-03T08:19:16;6.45;;;2.00;;
73428;SDS011;61643;49.564;17.412;2023-04-03T08:21:43;5.13;;;2.33;;
73428;SDS011;61643;49.564;17.412;2023-04-03T08:24:10;4.70;;;1.75;;
73428;SDS011;61643;49.564;17.412;2023-04-03T08:26:36;3.67;;;2.20;;
73428;SDS011;61643;49.564;17.412;2023-04-03T08:29:03;5.57;;;2.33;;
73428;SDS011;61643;49.564;17.412;2023-04-03T08:31:29;2.25;;;1.63;;
73428;SDS011;61643;49.564;17.412;2023-04-03T08:33:56;4.97;;;1.92;;
73428;SDS011;61643;49.564;17.412;2023-04-03T08:36:24;3.05;;;2.13;;
73428;SDS011;61643;49.564;17.412;2023-04-03T08:38:52;4.97;;;2.40;;
73428;SDS011;61643;49.564;17.412;2023-04-03T08:41:30;4.57;;;2.50;;
73428;SDS011;61643;49.564;17.412;2023-04-03T08:44:04;5.53;;;2.88;;
73428;SDS011;61643;49.564;17.412;2023-04-03T08:49:21;5.57;;;2.70;;
73428;SDS011;61643;49.564;17.412;2023-04-03T08:51:51;3.97;;;2.30;;
73428;SDS011;61643;49.564;17.412;2023-04-03T08:54:54;3.55;;;2.22;;
73428;SDS011;61643;49.564;17.412;2023-04-03T08:57:15;3.38;;;2.22;;
73428;SDS011;61643;49.564;17.412;2023-04-03T08:59:43;4.63;;;2.65;;
73428;SDS011;61643;49.564;17.412;2023-04-03T09:02:29;3.03;;;2.17;;
73428;SDS011;61643;49.564;17.412;2023-04-03T09:04:59;2.50;;;1.88;;
73428;SDS011;61643;49.564;17.412;2023-04-03T09:07:31;5.45;;;2.70;;
73428;SDS011;61643;49.564;17.412;2023-04-03T09:10:04;7.28;;;2.33;;
73428;SDS011;61643;49.564;17.412;2023-04-03T09:12:37;3.58;;;1.92;;
73428;SDS011;61643;49.564;17.412;2023-04-03T09:23:22;6.45;;;2.60;;
73428;SDS011;61643;49.564;17.412;2023-04-03T09:25:57;6.18;;;2.72;;
73428;SDS011;61643;49.564;17.412;2023-04-03T09:28:31;5.30;;;2.28;;
73428;SDS011;61643;49.564;17.412;2023-04-03T09:31:00;4.80;;;2.25;;
73428;SDS011;61643;49.564;17.412;2023-04-03T09:33:27;5.30;;;2.05;;
73428;SDS011;61643;49.564;17.412;2023-04-03T09:35:55;4.72;;;2.40;;
73428;SDS011;61643;49.564;17.412;2023-04-03T09:38:21;2.33;;;1.90;;
73428;SDS011;61643;49.564;17.412;2023-04-03T09:40:49;3.20;;;1.92;;
73428;SDS011;61643;49.564;17.412;2023-04-03T09:43:19;4.68;;;2.53;;
73428;SDS011;61643;49.564;17.412;2023-04-03T09:45:53;4.00;;;2.00;;
73428;SDS011;61643;49.564;17.412;2023-04-03T09:48:20;5.85;;;2.10;;
73428;SDS011;61643;49.564;17.412;2023-04-03T09:53:34;4.53;;;1.88;;
73428;SDS011;61643;49.564;17.412;2023-04-03T09:58:49;3.28;;;2.20;;
73428;SDS011;61643;49.564;17.412;2023-04-03T10:01:22;5.80;;;1.65;;
73428;SDS011;61643;49.564;17.412;2023-04-03T10:06:33;1.70;;;1.27;;
73428;SDS011;61643;49.564;17.412;2023-04-03T10:09:15;6.55;;;1.70;;
73428;SDS011;61643;49.564;17.412;2023-04-03T10:14:27;3.40;;;2.20;;
73428;SDS011;61643;49.564;17.412;2023-04-03T10:17:09;2.33;;;1.42;;
73428;SDS011;61643;49.564;17.412;2023-04-03T10:28:19;1.77;;;1.38;;
73428;SDS011;61643;49.564;17.412;2023-04-03T10:30:57;3.85;;;1.70;;
73428;SDS011;61643;49.564;17.412;2023-04-03T10:33:53;2.78;;;1.70;;
73428;SDS011;61643;49.564;17.412;2023-04-03T10:36:32;8.45;;;3.13;;
73428;SDS011;61643;49.564;17.412;2023-04-03T10:49:54;5.05;;;2.00;;
73428;SDS011;61643;49.564;17.412;2023-04-03T10:52:37;5.43;;;1.90;;
73428;SDS011;61643;49.564;17.412;2023-04-03T10:55:31;5.47;;;2.63;;
73428;SDS011;61643;49.564;17.412;2023-04-03T10:58:04;3.88;;;2.35;;
73428;SDS011;61643;49.564;17.412;2023-04-03T11:03:16;3.58;;;1.42;;
73428;SDS011;61643;49.564;17.412;2023-04-03T11:05:48;2.15;;;1.20;;
73428;SDS011;61643;49.564;17.412;2023-04-03T11:11:24;4.68;;;1.92;;
73428;SDS011;61643;49.564;17.412;2023-04-03T11:13:56;2.78;;;1.55;;
73428;SDS011;61643;49.564;17.412;2023-04-03T11:16:28;3.67;;;1.55;;
73428;SDS011;61643;49.564;17.412;2023-04-03T11:19:04;4.05;;;1.10;;
73428;SDS011;61643;49.564;17.412;2023-04-03T11:21:45;2.83;;;1.45;;
73428;SDS011;61643;49.564;17.412;2023-04-03T11:24:23;1.88;;;1.42;;
73428;SDS011;61643;49.564;17.412;2023-04-03T11:29:20;3.28;;;1.40;;
73428;SDS011;61643;49.564;17.412;2023-04-03T11:34:47;3.30;;;1.40;;
73428;SDS011;61643;49.564;17.412;2023-04-03T11:39:56;6.28;;;2.60;;
73428;SDS011;61643;49.564;17.412;2023-04-03T11:42:29;3.95;;;2.65;;
73428;SDS011;61643;49.564;17.412;2023-04-03T11:47:56;2.47;;;1.55;;
73428;SDS011;61643;49.564;17.412;2023-04-03T11:50:30;3.28;;;1.17;;
73428;SDS011;61643;49.564;17.412;2023-04-03T12:05:50;2.97;;;1.27;;
73428;SDS011;61643;49.564;17.412;2023-04-03T12:13:43;3.55;;;1.40;;
73428;SDS011;61643;49.564;17.412;2023-04-03T12:16:29;3.15;;;1.52;;
73428;SDS011;61643;49.564;17.412;2023-04-03T12:26:27;2.65;;;1.38;;
73428;SDS011;61643;49.564;17.412;2023-04-03T12:28:57;4.18;;;1.70;;
73428;SDS011;61643;49.564;17.412;2023-04-03T12:31:25;3.45;;;1.70;;
73428;SDS011;61643;49.564;17.412;2023-04-03T12:34:15;3.15;;;1.60;;
73428;SDS011;61643;49.564;17.412;2023-04-03T12:42:21;4.88;;;1.55;;
73428;SDS011;61643;49.564;17.412;2023-04-03T12:47:33;3.38;;;1.20;;
73428;SDS011;61643;49.564;17.412;2023-04-03T12:50:16;6.05;;;1.75;;
73428;SDS011;61643;49.564;17.412;2023-04-03T12:52:44;2.92;;;1.50;;
73428;SDS011;61643;49.564;17.412;2023-04-03T12:55:18;1.58;;;1.08;;
73428;SDS011;61643;49.564;17.412;2023-04-03T12:57:46;4.10;;;1.48;;
73428;SDS011;61643;49.564;17.412;2023-04-03T13:00:19;5.70;;;1.80;;
73428;SDS011;61643;49.564;17.412;2023-04-03T13:02:59;6.13;;;1.60;;
73428;SDS011;61643;49.564;17.412;2023-04-03T13:05:28;2.40;;;1.55;;
73428;SDS011;61643;49.564;17.412;2023-04-03T13:08:00;3.75;;;1.95;;
73428;SDS011;61643;49.564;17.412;2023-04-03T13:10:28;3.58;;;1.60;;
73428;SDS011;61643;49.564;17.412;2023-04-03T13:12:56;3.70;;;1.65;;
73428;SDS011;61643;49.564;17.412;2023-04-03T13:17:55;2.13;;;1.70;;
73428;SDS011;61643;49.564;17.412;2023-04-03T13:20:26;2.40;;;1.63;;
73428;SDS011;61643;49.564;17.412;2023-04-03T13:25:29;3.55;;;1.38;;
73428;SDS011;61643;49.564;17.412;2023-04-03T13:27:59;2.65;;;1.30;;
73428;SDS011;61643;49.564;17.412;2023-04-03T13:30:36;4.53;;;1.95;;
73428;SDS011;61643;49.564;17.412;2023-04-03T13:33:05;5.38;;;1.60;;
73428;SDS011;61643;49.564;17.412;2023-04-03T13:35:46;2.70;;;1.35;;
73428;SDS011;61643;49.564;17.412;2023-04-03T13:40:55;2.45;;;1.48;;
73428;SDS011;61643;49.564;17.412;2023-04-03T13:43:24;1.73;;;1.10;;
73428;SDS011;61643;49.564;17.412;2023-04-03T13:48:43;3.50;;;1.77;;
73428;SDS011;61643;49.564;17.412;2023-04-03T13:53:47;4.47;;;1.98;;
73428;SDS011;61643;49.564;17.412;2023-04-03T14:01:42;4.43;;;2.03;;
73428;SDS011;61643;49.564;17.412;2023-04-03T14:04:21;1.25;;;1.15;;
73428;SDS011;61643;49.564;17.412;2023-04-03T14:06:49;4.90;;;2.20;;
73428;SDS011;61643;49.564;17.412;2023-04-03T14:09:18;9.98;;;4.88;;
73428;SDS011;61643;49.564;17.412;2023-04-03T14:11:45;17.33;;;8.55;;
73428;SDS011;61643;49.564;17.412;2023-04-03T14:14:34;3.65;;;2.92;;
73428;SDS011;61643;49.564;17.412;2023-04-03T14:17:01;3.35;;;2.20;;
73428;SDS011;61643;49.564;17.412;2023-04-03T14:19:30;3.40;;;1.88;;
73428;SDS011;61643;49.564;17.412;2023-04-03T14:21:59;2.47;;;1.40;;
73428;SDS011;61643;49.564;17.412;2023-04-03T14:24:32;3.08;;;1.90;;
73428;SDS011;61643;49.564;17.412;2023-04-03T14:26:58;3.60;;;2.25;;
73428;SDS011;61643;49.564;17.412;2023-04-03T14:29:24;7.30;;;1.98;;
73428;SDS011;61643;49.564;17.412;2023-04-03T14:31:51;4.97;;;1.77;;
73428;SDS011;61643;49.564;17.412;2023-04-03T14:34:17;7.00;;;2.88;;
73428;SDS011;61643;49.564;17.412;2023-04-03T14:36:43;4.50;;;2.50;;
73428;SDS011;61643;49.564;17.412;2023-04-03T14:39:11;5.55;;;2.03;;
73428;SDS011;61643;49.564;17.412;2023-04-03T14:41:43;12.65;;;4.72;;
73428;SDS011;61643;49.564;17.412;2023-04-03T14:44:09;5.25;;;2.95;;
73428;SDS011;61643;49.564;17.412;2023-04-03T14:46:37;7.80;;;5.18;;
73428;SDS011;61643;49.564;17.412;2023-04-03T14:49:21;5.13;;;2.72;;
73428;SDS011;61643;49.564;17.412;2023-04-03T14:51:50;1.90;;;1.10;;
73428;SDS011;61643;49.564;17.412;2023-04-03T14:54:17;6.82;;;1.90;;
73428;SDS011;61643;49.564;17.412;2023-04-03T14:56:47;3.00;;;1.80;;
73428;SDS011;61643;49.564;17.412;2023-04-03T14:59:13;6.10;;;2.40;;
73428;SDS011;61643;49.564;17.412;2023-04-03T15:01:40;4.03;;;2.15;;
73428;SDS011;61643;49.564;17.412;2023-04-03T15:04:10;4.07;;;1.52;;
73428;SDS011;61643;49.564;17.412;2023-04-03T15:06:38;3.97;;;1.75;;
73428;SDS011;61643;49.564;17.412;2023-04-03T15:09:17;3.25;;;1.50;;
73428;SDS011;61643;49.564;17.412;2023-04-03T15:11:47;5.13;;;2.40;;
73428;SDS011;61643;49.564;17.412;2023-04-03T15:14:14;6.38;;;3.33;;
73428;SDS011;61643;49.564;17.412;2023-04-03T15:16:40;6.38;;;2.70;;
73428;SDS011;61643;49.564;17.412;2023-04-03T15:19:06;8.98;;;4.38;;
73428;SDS011;61643;49.564;17.412;2023-04-03T15:21:32;6.90;;;2.90;;
73428;SDS011;61643;49.564;17.412;2023-04-03T15:23:58;7.07;;;3.13;;
73428;SDS011;61643;49.564;17.412;2023-04-03T15:26:24;2.25;;;1.08;;
73428;SDS011;61643;49.564;17.412;2023-04-03T15:28:50;6.07;;;2.65;;
73428;SDS011;61643;49.564;17.412;2023-04-03T15:31:16;2.50;;;1.65;;
73428;SDS011;61643;49.564;17.412;2023-04-03T15:33:42;4.05;;;1.38;;
73428;SDS011;61643;49.564;17.412;2023-04-03T15:36:08;4.20;;;1.70;;
73428;SDS011;61643;49.564;17.412;2023-04-03T15:38:34;9.52;;;2.78;;
73428;SDS011;61643;49.564;17.412;2023-04-03T15:41:03;3.05;;;1.23;;
73428;SDS011;61643;49.564;17.412;2023-04-03T15:43:30;3.10;;;1.38;;
73428;SDS011;61643;49.564;17.412;2023-04-03T15:45:57;5.07;;;2.85;;
73428;SDS011;61643;49.564;17.412;2023-04-03T15:50:51;7.00;;;2.60;;
73428;SDS011;61643;49.564;17.412;2023-04-03T15:53:17;3.97;;;2.95;;
73428;SDS011;61643;49.564;17.412;2023-04-03T15:55:43;8.45;;;3.72;;
73428;SDS011;61643;49.564;17.412;2023-04-03T15:58:09;9.48;;;3.45;;
73428;SDS011;61643;49.564;17.412;2023-04-03T16:00:36;6.80;;;2.78;;
73428;SDS011;61643;49.564;17.412;2023-04-03T16:03:07;7.43;;;3.08;;
73428;SDS011;61643;49.564;17.412;2023-04-03T16:05:36;6.20;;;3.53;;
73428;SDS011;61643;49.564;17.412;2023-04-03T16:08:03;6.78;;;3.10;;
73428;SDS011;61643;49.564;17.412;2023-04-03T16:10:30;6.60;;;2.72;;
73428;SDS011;61643;49.564;17.412;2023-04-03T16:12:56;6.28;;;2.75;;
73428;SDS011;61643;49.564;17.412;2023-04-03T16:15:23;4.72;;;1.77;;
73428;SDS011;61643;49.564;17.412;2023-04-03T16:17:50;7.07;;;2.50;;
73428;SDS011;61643;49.564;17.412;2023-04-03T16:20:16;7.03;;;2.42;;
73428;SDS011;61643;49.564;17.412;2023-04-03T16:22:43;7.57;;;3.08;;
73428;SDS011;61643;49.564;17.412;2023-04-03T16:25:10;3.10;;;1.98;;
73428;SDS011;61643;49.564;17.412;2023-04-03T16:27:37;6.65;;;3.28;;
73428;SDS011;61643;49.564;17.412;2023-04-03T16:30:04;7.18;;;3.65;;
73428;SDS011;61643;49.564;17.412;2023-04-03T16:32:31;4.32;;;2.53;;
73428;SDS011;61643;49.564;17.412;2023-04-03T16:34:58;7.38;;;3.67;;
73428;SDS011;61643;49.564;17.412;2023-04-03T16:37:24;6.53;;;3.33;;
73428;SDS011;61643;49.564;17.412;2023-04-03T16:39:50;8.57;;;4.18;;